sensor_id;sensor_type;location;lat;lon;timestamp;P1;durP1;ratioP1;P2;durP2;ratioP2
74229;SDS011;62589;12.568;99.958;2022-10-14T00:01:40;8.35;;;6.90;;
74229;SDS011;62589;12.568;99.958;2022-10-14T00:04:07;8.00;;;7.07;;
74229;SDS011;62589;12.568;99.958;2022-10-14T00:06:33;9.77;;;6.88;;
74229;SDS011;62589;12.568;99.958;2022-10-14T00:09:02;7.15;;;6.43;;
74229;SDS011;62589;12.568;99.958;2022-10-14T00:11:31;9.25;;;6.97;;
74229;SDS011;62589;12.568;99.958;2022-10-14T00:14:02;10.55;;;7.18;;
74229;SDS011;62589;12.568;99.958;2022-10-14T00:16:34;10.45;;;7.47;;
74229;SDS011;62589;12.568;99.958;2022-10-14T00:19:05;9.52;;;6.63;;
74229;SDS011;62589;12.568;99.958;2022-10-14T00:21:33;8.80;;;6.63;;
74229;SDS011;62589;12.568;99.958;2022-10-14T00:24:01;8.50;;;7.00;;
74229;SDS011;62589;12.568;99.958;2022-10-14T00:26:30;10.23;;;7.10;;
74229;SDS011;62589;12.568;99.958;2022-10-14T00:28:59;9.10;;;6.90;;
74229;SDS011;62589;12.568;99.958;2022-10-14T00:31:27;11.43;;;7.07;;
74229;SDS011;62589;12.568;99.958;2022-10-14T00:33:53;11.77;;;6.75;;
74229;SDS011;62589;12.568;99.958;2022-10-14T00:36:21;9.45;;;7.45;;
74229;SDS011;62589;12.568;99.958;2022-10-14T00:38:49;11.13;;;7.13;;
74229;SDS011;62589;12.568;99.958;2022-10-14T00:41:20;9.10;;;7.32;;
74229;SDS011;62589;12.568;99.958;2022-10-14T00:44:02;8.75;;;7.03;;
74229;SDS011;62589;12.568;99.958;2022-10-14T00:46:48;8.73;;;6.40;;
74229;SDS011;62589;12.568;99.958;2022-10-14T00:49:17;9.80;;;7.43;;
74229;SDS011;62589;12.568;99.958;2022-10-14T00:54:36;9.02;;;7.18;;
74229;SDS011;62589;12.568;99.958;2022-10-14T00:57:07;9.95;;;7.05;;
74229;SDS011;62589;12.568;99.958;2022-10-14T00:59:35;11.23;;;7.65;;
74229;SDS011;62589;12.568;99.958;2022-10-14T01:02:02;11.35;;;7.47;;
74229;SDS011;62589;12.568;99.958;2022-10-14T01:04:28;9.40;;;7.57;;
74229;SDS011;62589;12.568;99.958;2022-10-14T01:07:05;10.40;;;7.13;;
74229;SDS011;62589;12.568;99.958;2022-10-14T01:18:03;8.65;;;6.97;;
74229;SDS011;62589;12.568;99.958;2022-10-14T01:37:57;8.82;;;7.07;;
74229;SDS011;62589;12.568;99.958;2022-10-14T01:43:15;13.77;;;7.10;;
74229;SDS011;62589;12.568;99.958;2022-10-14T01:45:44;12.18;;;6.20;;
74229;SDS011;62589;12.568;99.958;2022-10-14T01:48:14;9.00;;;6.40;;
74229;SDS011;62589;12.568;99.958;2022-10-14T01:50:44;8.95;;;6.75;;
74229;SDS011;62589;12.568;99.958;2022-10-14T01:53:22;8.80;;;6.28;;
74229;SDS011;62589;12.568;99.958;2022-10-14T01:55:52;7.88;;;6.40;;
74229;SDS011;62589;12.568;99.958;2022-10-14T01:58:22;11.43;;;6.20;;
74229;SDS011;62589;12.568;99.958;2022-10-14T02:00:51;8.60;;;6.63;;
74229;SDS011;62589;12.568;99.958;2022-10-14T02:03:18;10.27;;;6.53;;
74229;SDS011;62589;12.568;99.958;2022-10-14T02:05:53;10.13;;;6.45;;
74229;SDS011;62589;12.568;99.958;2022-10-14T02:08:33;10.18;;;6.60;;
74229;SDS011;62589;12.568;99.958;2022-10-14T02:11:20;8.48;;;7.03;;
74229;SDS011;62589;12.568;99.958;2022-10-14T02:17:00;13.27;;;7.65;;
74229;SDS011;62589;12.568;99.958;2022-10-14T02:25:02;12.93;;;7.97;;
74229;SDS011;62589;12.568;99.958;2022-10-14T02:27:36;12.13;;;7.95;;
74229;SDS011;62589;12.568;99.958;2022-10-14T02:30:05;13.63;;;8.10;;
74229;SDS011;62589;12.568;99.958;2022-10-14T02:32:33;11.57;;;7.82;;
74229;SDS011;62589;12.568;99.958;2022-10-14T02:35:02;12.38;;;7.50;;
74229;SDS011;62589;12.568;99.958;2022-10-14T02:37:32;12.05;;;7.90;;
74229;SDS011;62589;12.568;99.958;2022-10-14T02:42:49;11.82;;;8.20;;
74229;SDS011;62589;12.568;99.958;2022-10-14T02:45:16;10.10;;;7.53;;
74229;SDS011;62589;12.568;99.958;2022-10-14T02:47:44;10.88;;;8.02;;
74229;SDS011;62589;12.568;99.958;2022-10-14T02:50:11;10.70;;;7.32;;
74229;SDS011;62589;12.568;99.958;2022-10-14T02:52:38;9.65;;;7.28;;
74229;SDS011;62589;12.568;99.958;2022-10-14T02:55:04;9.25;;;6.82;;
74229;SDS011;62589;12.568;99.958;2022-10-14T02:57:31;12.10;;;7.38;;
74229;SDS011;62589;12.568;99.958;2022-10-14T02:59:58;8.95;;;7.10;;
74229;SDS011;62589;12.568;99.958;2022-10-14T03:02:25;9.07;;;7.13;;
74229;SDS011;62589;12.568;99.958;2022-10-14T03:04:52;8.20;;;6.63;;
74229;SDS011;62589;12.568;99.958;2022-10-14T03:07:18;10.07;;;6.65;;
74229;SDS011;62589;12.568;99.958;2022-10-14T03:09:46;10.75;;;6.47;;
74229;SDS011;62589;12.568;99.958;2022-10-14T03:12:13;8.45;;;6.70;;
74229;SDS011;62589;12.568;99.958;2022-10-14T03:14:39;8.13;;;6.30;;
74229;SDS011;62589;12.568;99.958;2022-10-14T03:17:07;9.63;;;6.53;;
74229;SDS011;62589;12.568;99.958;2022-10-14T03:19:34;11.43;;;7.72;;
74229;SDS011;62589;12.568;99.958;2022-10-14T03:22:00;9.98;;;7.35;;
74229;SDS011;62589;12.568;99.958;2022-10-14T03:24:27;12.38;;;7.45;;
74229;SDS011;62589;12.568;99.958;2022-10-14T03:26:54;8.25;;;6.95;;
74229;SDS011;62589;12.568;99.958;2022-10-14T03:29:20;9.60;;;7.35;;
74229;SDS011;62589;12.568;99.958;2022-10-14T03:31:47;11.85;;;8.85;;
74229;SDS011;62589;12.568;99.958;2022-10-14T03:34:14;11.40;;;8.65;;
74229;SDS011;62589;12.568;99.958;2022-10-14T03:36:41;10.00;;;8.05;;
74229;SDS011;62589;12.568;99.958;2022-10-14T03:39:11;16.90;;;9.07;;
74229;SDS011;62589;12.568;99.958;2022-10-14T03:41:38;10.52;;;8.60;;
74229;SDS011;62589;12.568;99.958;2022-10-14T03:44:04;12.05;;;8.65;;
74229;SDS011;62589;12.568;99.958;2022-10-14T03:46:31;10.07;;;7.95;;
74229;SDS011;62589;12.568;99.958;2022-10-14T03:48:58;14.85;;;8.50;;
74229;SDS011;62589;12.568;99.958;2022-10-14T03:51:25;12.25;;;8.80;;
74229;SDS011;62589;12.568;99.958;2022-10-14T03:53:52;15.13;;;8.70;;
74229;SDS011;62589;12.568;99.958;2022-10-14T03:56:18;13.00;;;9.00;;
74229;SDS011;62589;12.568;99.958;2022-10-14T03:58:45;13.48;;;8.65;;
74229;SDS011;62589;12.568;99.958;2022-10-14T04:01:12;12.55;;;8.57;;
74229;SDS011;62589;12.568;99.958;2022-10-14T04:03:39;14.48;;;8.82;;
74229;SDS011;62589;12.568;99.958;2022-10-14T04:06:06;12.30;;;8.13;;
74229;SDS011;62589;12.568;99.958;2022-10-14T04:08:33;13.73;;;8.80;;
74229;SDS011;62589;12.568;99.958;2022-10-14T04:10:59;11.32;;;9.77;;
74229;SDS011;62589;12.568;99.958;2022-10-14T04:13:26;15.63;;;9.95;;
74229;SDS011;62589;12.568;99.958;2022-10-14T04:15:53;12.43;;;9.35;;
74229;SDS011;62589;12.568;99.958;2022-10-14T04:18:20;11.48;;;9.25;;
74229;SDS011;62589;12.568;99.958;2022-10-14T04:20:46;11.93;;;9.05;;
74229;SDS011;62589;12.568;99.958;2022-10-14T04:23:13;12.75;;;9.98;;
74229;SDS011;62589;12.568;99.958;2022-10-14T04:25:40;13.15;;;9.45;;
74229;SDS011;62589;12.568;99.958;2022-10-14T04:28:07;13.35;;;9.88;;
74229;SDS011;62589;12.568;99.958;2022-10-14T04:30:34;13.77;;;9.52;;
74229;SDS011;62589;12.568;99.958;2022-10-14T04:33:00;13.50;;;9.23;;
74229;SDS011;62589;12.568;99.958;2022-10-14T04:35:27;13.75;;;9.15;;
74229;SDS011;62589;12.568;99.958;2022-10-14T04:37:54;14.82;;;9.23;;
74229;SDS011;62589;12.568;99.958;2022-10-14T04:40:21;13.63;;;9.32;;
74229;SDS011;62589;12.568;99.958;2022-10-14T04:42:56;12.70;;;8.95;;
74229;SDS011;62589;12.568;99.958;2022-10-14T04:45:24;15.50;;;9.95;;
74229;SDS011;62589;12.568;99.958;2022-10-14T04:47:51;12.88;;;9.02;;
74229;SDS011;62589;12.568;99.958;2022-10-14T04:50:18;11.70;;;9.80;;
74229;SDS011;62589;12.568;99.958;2022-10-14T04:52:45;12.63;;;9.68;;
74229;SDS011;62589;12.568;99.958;2022-10-14T04:55:12;12.13;;;9.85;;
74229;SDS011;62589;12.568;99.958;2022-10-14T04:57:38;15.85;;;9.95;;
74229;SDS011;62589;12.568;99.958;2022-10-14T05:00:09;13.43;;;10.45;;
74229;SDS011;62589;12.568;99.958;2022-10-14T05:02:36;11.23;;;9.63;;
74229;SDS011;62589;12.568;99.958;2022-10-14T05:05:04;13.15;;;10.50;;
74229;SDS011;62589;12.568;99.958;2022-10-14T05:07:35;16.20;;;10.07;;
74229;SDS011;62589;12.568;99.958;2022-10-14T05:10:03;13.60;;;9.88;;
74229;SDS011;62589;12.568;99.958;2022-10-14T05:12:30;13.38;;;10.15;;
74229;SDS011;62589;12.568;99.958;2022-10-14T05:14:57;12.57;;;10.02;;
74229;SDS011;62589;12.568;99.958;2022-10-14T05:17:23;10.77;;;8.68;;
74229;SDS011;62589;12.568;99.958;2022-10-14T05:19:50;11.25;;;8.32;;
74229;SDS011;62589;12.568;99.958;2022-10-14T05:22:16;12.68;;;8.25;;
74229;SDS011;62589;12.568;99.958;2022-10-14T05:24:43;11.93;;;9.15;;
74229;SDS011;62589;12.568;99.958;2022-10-14T05:27:09;8.52;;;7.63;;
74229;SDS011;62589;12.568;99.958;2022-10-14T05:29:35;13.13;;;8.25;;
74229;SDS011;62589;12.568;99.958;2022-10-14T05:32:02;11.93;;;8.60;;
74229;SDS011;62589;12.568;99.958;2022-10-14T05:34:29;15.13;;;8.88;;
74229;SDS011;62589;12.568;99.958;2022-10-14T05:36:57;15.05;;;9.18;;
74229;SDS011;62589;12.568;99.958;2022-10-14T05:39:24;9.75;;;7.93;;
74229;SDS011;62589;12.568;99.958;2022-10-14T05:41:50;10.43;;;7.65;;
74229;SDS011;62589;12.568;99.958;2022-10-14T05:44:16;9.70;;;8.35;;
74229;SDS011;62589;12.568;99.958;2022-10-14T05:46:43;9.10;;;7.13;;
74229;SDS011;62589;12.568;99.958;2022-10-14T05:49:10;8.93;;;7.40;;
74229;SDS011;62589;12.568;99.958;2022-10-14T05:51:37;11.30;;;8.10;;
74229;SDS011;62589;12.568;99.958;2022-10-14T05:54:03;9.18;;;6.95;;
74229;SDS011;62589;12.568;99.958;2022-10-14T05:56:30;12.82;;;7.95;;
74229;SDS011;62589;12.568;99.958;2022-10-14T05:58:57;10.63;;;7.97;;
74229;SDS011;62589;12.568;99.958;2022-10-14T06:01:23;12.50;;;8.00;;
74229;SDS011;62589;12.568;99.958;2022-10-14T06:03:50;11.93;;;8.25;;
74229;SDS011;62589;12.568;99.958;2022-10-14T06:06:17;8.98;;;7.72;;
74229;SDS011;62589;12.568;99.958;2022-10-14T06:08:44;10.70;;;7.57;;
74229;SDS011;62589;12.568;99.958;2022-10-14T06:11:11;10.05;;;7.68;;
74229;SDS011;62589;12.568;99.958;2022-10-14T06:13:38;10.65;;;7.78;;
74229;SDS011;62589;12.568;99.958;2022-10-14T06:16:07;12.48;;;8.85;;
74229;SDS011;62589;12.568;99.958;2022-10-14T06:18:34;9.50;;;7.50;;
74229;SDS011;62589;12.568;99.958;2022-10-14T06:21:01;11.85;;;7.40;;
74229;SDS011;62589;12.568;99.958;2022-10-14T06:23:29;11.43;;;7.85;;
74229;SDS011;62589;12.568;99.958;2022-10-14T06:25:55;11.45;;;8.38;;
74229;SDS011;62589;12.568;99.958;2022-10-14T06:28:22;9.63;;;7.20;;
74229;SDS011;62589;12.568;99.958;2022-10-14T06:30:52;11.35;;;8.40;;
74229;SDS011;62589;12.568;99.958;2022-10-14T06:33:19;10.55;;;8.13;;
74229;SDS011;62589;12.568;99.958;2022-10-14T06:35:47;9.77;;;7.80;;
74229;SDS011;62589;12.568;99.958;2022-10-14T06:38:13;10.52;;;8.18;;
74229;SDS011;62589;12.568;99.958;2022-10-14T06:40:40;12.75;;;8.57;;
74229;SDS011;62589;12.568;99.958;2022-10-14T06:43:06;9.57;;;8.15;;
74229;SDS011;62589;12.568;99.958;2022-10-14T06:45:33;10.90;;;8.20;;
74229;SDS011;62589;12.568;99.958;2022-10-14T06:47:59;11.85;;;8.55;;
74229;SDS011;62589;12.568;99.958;2022-10-14T06:50:26;11.48;;;8.30;;
74229;SDS011;62589;12.568;99.958;2022-10-14T06:52:52;11.27;;;7.60;;
74229;SDS011;62589;12.568;99.958;2022-10-14T06:55:19;11.75;;;7.82;;
74229;SDS011;62589;12.568;99.958;2022-10-14T06:57:45;9.30;;;7.90;;
74229;SDS011;62589;12.568;99.958;2022-10-14T07:00:12;12.90;;;8.00;;
74229;SDS011;62589;12.568;99.958;2022-10-14T07:02:38;10.20;;;7.90;;
74229;SDS011;62589;12.568;99.958;2022-10-14T07:05:05;10.95;;;8.00;;
74229;SDS011;62589;12.568;99.958;2022-10-14T07:07:32;11.32;;;7.82;;
74229;SDS011;62589;12.568;99.958;2022-10-14T07:09:58;9.70;;;7.53;;
74229;SDS011;62589;12.568;99.958;2022-10-14T07:12:25;11.43;;;8.02;;
74229;SDS011;62589;12.568;99.958;2022-10-14T07:14:52;15.13;;;8.63;;
74229;SDS011;62589;12.568;99.958;2022-10-14T07:17:19;9.25;;;7.90;;
74229;SDS011;62589;12.568;99.958;2022-10-14T07:19:45;9.85;;;7.70;;
74229;SDS011;62589;12.568;99.958;2022-10-14T07:22:11;10.07;;;8.48;;
74229;SDS011;62589;12.568;99.958;2022-10-14T07:24:38;11.00;;;8.23;;
74229;SDS011;62589;12.568;99.958;2022-10-14T07:27:06;8.98;;;7.68;;
74229;SDS011;62589;12.568;99.958;2022-10-14T07:29:33;8.45;;;7.45;;
74229;SDS011;62589;12.568;99.958;2022-10-14T07:32:00;12.07;;;8.65;;
74229;SDS011;62589;12.568;99.958;2022-10-14T07:34:26;11.93;;;8.10;;
74229;SDS011;62589;12.568;99.958;2022-10-14T07:36:53;11.02;;;8.45;;
74229;SDS011;62589;12.568;99.958;2022-10-14T07:39:19;11.70;;;8.30;;
74229;SDS011;62589;12.568;99.958;2022-10-14T07:41:46;10.85;;;8.35;;
74229;SDS011;62589;12.568;99.958;2022-10-14T07:44:12;10.23;;;7.88;;
74229;SDS011;62589;12.568;99.958;2022-10-14T07:46:42;8.55;;;7.15;;
74229;SDS011;62589;12.568;99.958;2022-10-14T07:49:11;9.85;;;7.28;;
74229;SDS011;62589;12.568;99.958;2022-10-14T07:51:42;12.30;;;8.20;;
74229;SDS011;62589;12.568;99.958;2022-10-14T07:54:11;9.82;;;8.13;;
74229;SDS011;62589;12.568;99.958;2022-10-14T07:56:40;10.10;;;8.02;;
74229;SDS011;62589;12.568;99.958;2022-10-14T07:59:08;11.75;;;7.68;;
74229;SDS011;62589;12.568;99.958;2022-10-14T08:01:35;11.13;;;7.18;;
74229;SDS011;62589;12.568;99.958;2022-10-14T08:04:02;9.88;;;7.85;;
74229;SDS011;62589;12.568;99.958;2022-10-14T08:06:29;13.20;;;8.10;;
74229;SDS011;62589;12.568;99.958;2022-10-14T08:08:56;9.88;;;7.70;;
74229;SDS011;62589;12.568;99.958;2022-10-14T08:11:23;8.80;;;7.50;;
74229;SDS011;62589;12.568;99.958;2022-10-14T08:13:51;11.55;;;8.75;;
74229;SDS011;62589;12.568;99.958;2022-10-14T08:16:20;9.52;;;7.88;;
74229;SDS011;62589;12.568;99.958;2022-10-14T08:18:48;13.27;;;8.32;;
74229;SDS011;62589;12.568;99.958;2022-10-14T08:21:16;11.10;;;7.80;;
74229;SDS011;62589;12.568;99.958;2022-10-14T08:23:44;9.15;;;7.72;;
74229;SDS011;62589;12.568;99.958;2022-10-14T08:26:15;9.27;;;7.32;;
74229;SDS011;62589;12.568;99.958;2022-10-14T08:28:46;10.68;;;7.65;;
74229;SDS011;62589;12.568;99.958;2022-10-14T08:31:13;13.70;;;8.27;;
74229;SDS011;62589;12.568;99.958;2022-10-14T08:33:40;11.57;;;8.20;;
74229;SDS011;62589;12.568;99.958;2022-10-14T08:36:07;11.57;;;8.68;;
74229;SDS011;62589;12.568;99.958;2022-10-14T08:38:33;10.85;;;7.40;;
74229;SDS011;62589;12.568;99.958;2022-10-14T08:46:54;11.82;;;8.18;;
74229;SDS011;62589;12.568;99.958;2022-10-14T08:49:28;10.73;;;8.10;;
74229;SDS011;62589;12.568;99.958;2022-10-14T08:52:16;13.00;;;8.63;;
74229;SDS011;62589;12.568;99.958;2022-10-14T08:54:48;12.60;;;8.75;;
74229;SDS011;62589;12.568;99.958;2022-10-14T08:57:22;11.38;;;8.25;;
74229;SDS011;62589;12.568;99.958;2022-10-14T08:59:56;10.85;;;8.13;;
74229;SDS011;62589;12.568;99.958;2022-10-14T09:05:19;10.05;;;8.27;;
74229;SDS011;62589;12.568;99.958;2022-10-14T09:07:52;10.27;;;8.02;;
74229;SDS011;62589;12.568;99.958;2022-10-14T09:10:26;12.02;;;8.70;;
74229;SDS011;62589;12.568;99.958;2022-10-14T09:13:05;11.38;;;8.65;;
74229;SDS011;62589;12.568;99.958;2022-10-14T09:15:41;9.75;;;8.27;;
74229;SDS011;62589;12.568;99.958;2022-10-14T09:18:18;10.45;;;8.23;;
74229;SDS011;62589;12.568;99.958;2022-10-14T09:20:48;10.15;;;8.32;;
74229;SDS011;62589;12.568;99.958;2022-10-14T09:23:21;9.13;;;8.05;;
74229;SDS011;62589;12.568;99.958;2022-10-14T09:25:56;14.38;;;8.50;;
74229;SDS011;62589;12.568;99.958;2022-10-14T09:31:05;12.73;;;8.52;;
74229;SDS011;62589;12.568;99.958;2022-10-14T09:33:38;9.75;;;8.27;;
74229;SDS011;62589;12.568;99.958;2022-10-14T09:36:12;10.32;;;7.97;;
74229;SDS011;62589;12.568;99.958;2022-10-14T09:38:42;8.82;;;7.95;;
74229;SDS011;62589;12.568;99.958;2022-10-14T09:41:17;9.48;;;8.38;;
74229;SDS011;62589;12.568;99.958;2022-10-14T09:46:37;10.43;;;8.52;;
74229;SDS011;62589;12.568;99.958;2022-10-14T09:49:04;12.77;;;8.40;;
74229;SDS011;62589;12.568;99.958;2022-10-14T09:51:40;9.25;;;7.72;;
74229;SDS011;62589;12.568;99.958;2022-10-14T09:54:14;9.68;;;7.50;;
74229;SDS011;62589;12.568;99.958;2022-10-14T09:56:47;10.25;;;8.35;;
74229;SDS011;62589;12.568;99.958;2022-10-14T09:59:18;13.25;;;8.30;;
74229;SDS011;62589;12.568;99.958;2022-10-14T10:01:51;12.23;;;8.10;;
74229;SDS011;62589;12.568;99.958;2022-10-14T10:09:58;8.98;;;8.00;;
74229;SDS011;62589;12.568;99.958;2022-10-14T10:12:28;9.52;;;7.93;;
74229;SDS011;62589;12.568;99.958;2022-10-14T10:14:58;9.32;;;7.53;;
74229;SDS011;62589;12.568;99.958;2022-10-14T10:17:31;11.15;;;9.00;;
74229;SDS011;62589;12.568;99.958;2022-10-14T10:20:18;9.30;;;8.35;;
74229;SDS011;62589;12.568;99.958;2022-10-14T10:22:56;9.18;;;8.13;;
74229;SDS011;62589;12.568;99.958;2022-10-14T10:25:36;10.85;;;8.20;;
74229;SDS011;62589;12.568;99.958;2022-10-14T10:28:02;10.07;;;8.30;;
74229;SDS011;62589;12.568;99.958;2022-10-14T10:30:47;10.35;;;8.13;;
74229;SDS011;62589;12.568;99.958;2022-10-14T10:33:40;10.60;;;8.88;;
74229;SDS011;62589;12.568;99.958;2022-10-14T10:39:25;27.08;;;15.70;;
74229;SDS011;62589;12.568;99.958;2022-10-14T10:42:14;25.90;;;14.57;;
74229;SDS011;62589;12.568;99.958;2022-10-14T10:50:47;107.38;;;37.53;;
74229;SDS011;62589;12.568;99.958;2022-10-14T10:53:35;88.78;;;36.63;;
74229;SDS011;62589;12.568;99.958;2022-10-14T11:05:16;68.82;;;29.38;;
74229;SDS011;62589;12.568;99.958;2022-10-14T11:08:10;56.97;;;26.23;;
74229;SDS011;62589;12.568;99.958;2022-10-14T11:14:22;43.95;;;21.63;;
74229;SDS011;62589;12.568;99.958;2022-10-14T11:17:23;30.17;;;17.60;;
74229;SDS011;62589;12.568;99.958;2022-10-14T11:20:19;23.38;;;15.73;;
74229;SDS011;62589;12.568;99.958;2022-10-14T11:26:15;19.70;;;14.73;;
74229;SDS011;62589;12.568;99.958;2022-10-14T11:35:04;19.75;;;14.68;;
74229;SDS011;62589;12.568;99.958;2022-10-14T11:38:02;18.63;;;13.82;;
74229;SDS011;62589;12.568;99.958;2022-10-14T11:44:14;15.48;;;12.32;;
74229;SDS011;62589;12.568;99.958;2022-10-14T11:46:48;21.77;;;13.88;;
74229;SDS011;62589;12.568;99.958;2022-10-14T11:49:27;20.60;;;13.93;;
74229;SDS011;62589;12.568;99.958;2022-10-14T11:52:13;19.40;;;12.88;;
74229;SDS011;62589;12.568;99.958;2022-10-14T11:54:47;17.83;;;12.90;;
74229;SDS011;62589;12.568;99.958;2022-10-14T11:57:37;16.90;;;13.48;;
74229;SDS011;62589;12.568;99.958;2022-10-14T12:00:12;17.80;;;13.88;;
74229;SDS011;62589;12.568;99.958;2022-10-14T12:03:22;19.98;;;14.30;;
74229;SDS011;62589;12.568;99.958;2022-10-14T12:06:15;18.40;;;13.00;;
74229;SDS011;62589;12.568;99.958;2022-10-14T12:08:58;19.40;;;14.23;;
74229;SDS011;62589;12.568;99.958;2022-10-14T12:14:30;17.23;;;12.93;;
74229;SDS011;62589;12.568;99.958;2022-10-14T12:17:21;17.33;;;12.73;;
74229;SDS011;62589;12.568;99.958;2022-10-14T12:20:02;18.33;;;12.38;;
74229;SDS011;62589;12.568;99.958;2022-10-14T12:22:47;17.05;;;12.25;;
74229;SDS011;62589;12.568;99.958;2022-10-14T12:25:15;14.93;;;11.82;;
74229;SDS011;62589;12.568;99.958;2022-10-14T12:27:44;15.77;;;11.00;;
74229;SDS011;62589;12.568;99.958;2022-10-14T12:33:02;14.75;;;11.63;;
74229;SDS011;62589;12.568;99.958;2022-10-14T12:35:47;18.40;;;11.90;;
74229;SDS011;62589;12.568;99.958;2022-10-14T12:38:19;14.25;;;10.90;;
74229;SDS011;62589;12.568;99.958;2022-10-14T12:40:47;13.38;;;10.73;;
74229;SDS011;62589;12.568;99.958;2022-10-14T12:43:21;12.38;;;10.45;;
74229;SDS011;62589;12.568;99.958;2022-10-14T12:48:46;13.50;;;10.75;;
74229;SDS011;62589;12.568;99.958;2022-10-14T12:51:18;14.00;;;11.15;;
74229;SDS011;62589;12.568;99.958;2022-10-14T12:53:50;14.52;;;11.00;;
74229;SDS011;62589;12.568;99.958;2022-10-14T12:59:29;12.32;;;10.65;;
74229;SDS011;62589;12.568;99.958;2022-10-14T13:02:14;13.90;;;11.73;;
74229;SDS011;62589;12.568;99.958;2022-10-14T13:04:52;13.48;;;11.20;;
74229;SDS011;62589;12.568;99.958;2022-10-14T13:07:28;13.98;;;11.15;;
74229;SDS011;62589;12.568;99.958;2022-10-14T13:09:57;13.80;;;10.65;;
74229;SDS011;62589;12.568;99.958;2022-10-14T13:12:37;14.82;;;11.48;;
74229;SDS011;62589;12.568;99.958;2022-10-14T13:21:10;12.88;;;11.23;;
74229;SDS011;62589;12.568;99.958;2022-10-14T13:23:56;14.40;;;11.10;;
74229;SDS011;62589;12.568;99.958;2022-10-14T13:29:34;11.70;;;10.13;;
74229;SDS011;62589;12.568;99.958;2022-10-14T13:32:33;14.15;;;11.50;;
74229;SDS011;62589;12.568;99.958;2022-10-14T13:35:30;15.18;;;11.88;;
74229;SDS011;62589;12.568;99.958;2022-10-14T13:38:13;13.05;;;10.75;;
74229;SDS011;62589;12.568;99.958;2022-10-14T13:40:55;14.45;;;11.15;;
74229;SDS011;62589;12.568;99.958;2022-10-14T13:43:26;14.30;;;12.40;;
74229;SDS011;62589;12.568;99.958;2022-10-14T13:46:05;15.35;;;11.40;;
74229;SDS011;62589;12.568;99.958;2022-10-14T13:48:45;15.07;;;11.90;;
74229;SDS011;62589;12.568;99.958;2022-10-14T13:51:22;15.18;;;12.30;;
74229;SDS011;62589;12.568;99.958;2022-10-14T13:54:08;12.80;;;11.40;;
74229;SDS011;62589;12.568;99.958;2022-10-14T13:56:58;15.43;;;12.35;;
74229;SDS011;62589;12.568;99.958;2022-10-14T13:59:27;14.60;;;11.70;;
74229;SDS011;62589;12.568;99.958;2022-10-14T14:01:56;13.32;;;11.93;;
74229;SDS011;62589;12.568;99.958;2022-10-14T14:04:27;15.05;;;11.80;;
74229;SDS011;62589;12.568;99.958;2022-10-14T14:06:57;15.63;;;11.73;;
74229;SDS011;62589;12.568;99.958;2022-10-14T14:09:25;16.70;;;12.70;;
74229;SDS011;62589;12.568;99.958;2022-10-14T14:11:57;15.07;;;12.07;;
74229;SDS011;62589;12.568;99.958;2022-10-14T14:14:31;14.77;;;13.10;;
74229;SDS011;62589;12.568;99.958;2022-10-14T14:17:05;16.35;;;12.20;;
74229;SDS011;62589;12.568;99.958;2022-10-14T14:19:43;14.30;;;11.70;;
74229;SDS011;62589;12.568;99.958;2022-10-14T14:27:49;22.08;;;12.77;;
74229;SDS011;62589;12.568;99.958;2022-10-14T14:30:24;14.93;;;12.13;;
74229;SDS011;62589;12.568;99.958;2022-10-14T14:33:00;12.80;;;11.38;;
